Time;durP1;ratioP1;P1;durP2;ratioP2;P2;SDS_P1;SDS_P2;PMS_P1;PMS_P2;Temp;Humidity;BMP_temperature;BMP_pressure;BME280_temperature;BME280_humidity;BME280_pressure;Samples;Min_cycle;Max_cycle;Signal;HPM_P1;HPM_P2
2022/11/18 00:00:29;;;;;;;24.20;16.05;;;;;;;;;;5045845;28;20045;-79
2022/11/18 00:02:55;;;;;;;23.95;16.13;;;;;;;;;;5019754;28;20084;-79
2022/11/18 00:05:21;;;;;;;24.17;15.90;;;;;;;;;;5055562;28;20103;-79
2022/11/18 00:07:47;;;;;;;24.33;16.52;;;;;;;;;;5055698;28;20556;-80
2022/11/18 00:10:13;;;;;;;26.20;17.42;;;;;;;;;;5050217;28;20041;-79
2022/11/18 00:15:24;;;;;;;23.50;16.58;;;;;;;;;;5056741;28;20052;-79
2022/11/18 00:17:50;;;;;;;27.52;17.25;;;;;;;;;;5056250;28;20052;-79
2022/11/18 00:20:16;;;;;;;25.33;15.90;;;;;;;;;;5051608;28;20048;-79
2022/11/18 00:22:42;;;;;;;27.65;16.67;;;;;;;;;;5036945;28;20050;-79
2022/11/18 00:25:08;;;;;;;30.55;17.88;;;;;;;;;;5036620;28;20056;-79
2022/11/18 00:27:34;;;;;;;29.90;17.85;;;;;;;;;;5036619;28;20049;-79
2022/11/18 00:30:00;;;;;;;27.02;15.73;;;;;;;;;;5035966;28;20402;-79
2022/11/18 00:32:26;;;;;;;27.73;18.02;;;;;;;;;;5055670;28;20040;-79
2022/11/18 00:34:53;;;;;;;27.17;17.77;;;;;;;;;;5041207;28;20037;-78
2022/11/18 00:37:19;;;;;;;29.00;18.30;;;;;;;;;;5055309;28;20513;-78
2022/11/18 00:39:45;;;;;;;28.60;18.20;;;;;;;;;;5053925;28;20049;-78
2022/11/18 00:44:56;;;;;;;28.63;17.73;;;;;;;;;;5044997;28;20128;-79
2022/11/18 00:47:22;;;;;;;27.65;17.98;;;;;;;;;;5037146;28;20482;-79
2022/11/18 00:49:48;;;;;;;29.13;18.65;;;;;;;;;;5050438;28;20076;-79
2022/11/18 00:52:14;;;;;;;30.67;19.10;;;;;;;;;;5017450;28;20132;-79
2022/11/18 00:54:40;;;;;;;28.70;17.58;;;;;;;;;;5036230;28;20056;-79
2022/11/18 00:57:06;;;;;;;28.73;17.83;;;;;;;;;;5035463;28;20049;-79
2022/11/18 00:59:32;;;;;;;32.40;18.05;;;;;;;;;;5047935;28;20041;-79
2022/11/18 01:01:58;;;;;;;30.52;18.83;;;;;;;;;;5054750;28;20403;-79
2022/11/18 01:04:24;;;;;;;32.17;19.45;;;;;;;;;;5040963;28;20053;-79
2022/11/18 01:06:50;;;;;;;32.05;19.90;;;;;;;;;;5036162;28;20042;-79
2022/11/18 01:09:16;;;;;;;32.22;18.88;;;;;;;;;;5045120;28;20045;-79
2022/11/18 01:14:27;;;;;;;29.60;17.88;;;;;;;;;;5035665;28;20054;-79
2022/11/18 01:16:54;;;;;;;28.92;17.65;;;;;;;;;;5035634;28;20050;-79
2022/11/18 01:19:20;;;;;;;30.35;18.52;;;;;;;;;;5046812;28;20073;-79
2022/11/18 01:21:46;;;;;;;27.33;16.25;;;;;;;;;;5035531;28;20048;-79
2022/11/18 01:24:12;;;;;;;32.33;19.40;;;;;;;;;;5053371;28;20052;-79
2022/11/18 01:26:38;;;;;;;31.17;18.52;;;;;;;;;;5054858;28;20076;-79
2022/11/18 01:29:04;;;;;;;30.27;17.85;;;;;;;;;;5055184;28;20487;-79
2022/11/18 01:31:30;;;;;;;30.85;18.17;;;;;;;;;;5055918;28;20049;-79
2022/11/18 01:33:56;;;;;;;30.80;17.98;;;;;;;;;;5055962;28;20047;-79
2022/11/18 01:36:25;;;;;;;29.33;17.95;;;;;;;;;;5053563;28;20041;-79
2022/11/18 01:38:51;;;;;;;27.75;17.90;;;;;;;;;;5035756;28;20059;-79
2022/11/18 01:41:18;;;;;;;29.35;18.30;;;;;;;;;;5052346;28;20037;-79
2022/11/18 01:43:47;;;;;;;29.45;17.52;;;;;;;;;;5054586;28;20459;-79
2022/11/18 01:46:13;;;;;;;31.40;17.88;;;;;;;;;;5053596;28;20454;-79
2022/11/18 01:48:39;;;;;;;30.80;17.50;;;;;;;;;;5054557;28;20041;-79
2022/11/18 01:51:08;;;;;;;30.38;17.20;;;;;;;;;;5054709;28;20049;-79
2022/11/18 01:53:37;;;;;;;29.90;16.85;;;;;;;;;;5053574;28;20068;-79
2022/11/18 01:56:07;;;;;;;27.80;16.83;;;;;;;;;;5057399;28;20045;-79
2022/11/18 01:58:38;;;;;;;29.85;17.13;;;;;;;;;;5059525;28;20040;-79
2022/11/18 02:01:05;;;;;;;28.67;17.38;;;;;;;;;;5059068;28;20103;-79
2022/11/18 02:03:32;;;;;;;34.20;19.08;;;;;;;;;;5049018;28;20049;-79
2022/11/18 02:05:59;;;;;;;29.92;18.05;;;;;;;;;;5039460;28;20049;-79
2022/11/18 02:08:25;;;;;;;29.92;17.83;;;;;;;;;;5040320;28;20069;-79
2022/11/18 02:10:51;;;;;;;29.08;17.65;;;;;;;;;;5058813;28;20052;-79
2022/11/18 02:13:18;;;;;;;30.13;18.27;;;;;;;;;;5058476;28;20060;-79
2022/11/18 02:15:47;;;;;;;28.92;16.63;;;;;;;;;;5057534;28;20053;-79
2022/11/18 02:18:33;;;;;;;28.83;17.17;;;;;;;;;;5058177;28;20048;-79
2022/11/18 02:21:19;;;;;;;34.40;19.55;;;;;;;;;;5036703;28;20054;-79
2022/11/18 02:23:45;;;;;;;32.35;18.15;;;;;;;;;;5044665;28;20474;-79
2022/11/18 02:26:47;;;;;;;33.60;19.73;;;;;;;;;;5042530;28;20045;-79
2022/11/18 02:29:51;;;;;;;28.65;16.08;;;;;;;;;;4980387;28;20436;-79
2022/11/18 02:32:21;;;;;;;30.58;17.15;;;;;;;;;;4938136;29;20518;-79
2022/11/18 02:34:58;;;;;;;36.35;18.38;;;;;;;;;;4954787;29;20047;-79
2022/11/18 02:37:28;;;;;;;34.55;18.25;;;;;;;;;;4957105;29;20107;-79
2022/11/18 02:39:59;;;;;;;32.47;18.02;;;;;;;;;;4957106;29;20051;-79
2022/11/18 02:42:26;;;;;;;35.88;19.05;;;;;;;;;;4956760;29;20466;-79
2022/11/18 02:44:54;;;;;;;31.73;17.10;;;;;;;;;;4956942;29;20051;-79
2022/11/18 02:47:20;;;;;;;28.63;17.30;;;;;;;;;;4941420;29;20051;-79
2022/11/18 02:49:51;;;;;;;30.15;17.20;;;;;;;;;;4957072;29;20063;-79
2022/11/18 02:52:19;;;;;;;32.97;18.75;;;;;;;;;;4956566;29;20035;-79
2022/11/18 02:54:47;;;;;;;33.95;18.27;;;;;;;;;;4956649;29;20054;-79
2022/11/18 02:57:14;;;;;;;31.08;17.23;;;;;;;;;;4922617;29;20087;-79
2022/11/18 02:59:41;;;;;;;30.00;17.33;;;;;;;;;;4937607;29;20055;-79
2022/11/18 03:02:07;;;;;;;30.50;16.65;;;;;;;;;;4961374;28;20074;-79
2022/11/18 03:04:34;;;;;;;33.40;18.05;;;;;;;;;;5037078;28;20380;-79
2022/11/18 03:07:11;;;;;;;30.00;16.55;;;;;;;;;;5053117;28;20041;-79
2022/11/18 03:09:39;;;;;;;33.25;17.02;;;;;;;;;;5061168;28;20045;-79
2022/11/18 03:12:18;;;;;;;32.50;16.70;;;;;;;;;;5048602;28;20050;-79
2022/11/18 03:15:06;;;;;;;30.58;16.55;;;;;;;;;;5036224;28;20063;-79
2022/11/18 03:17:41;;;;;;;31.90;17.85;;;;;;;;;;5041788;28;20049;-79
2022/11/18 03:20:22;;;;;;;35.03;18.35;;;;;;;;;;5056560;28;20037;-79
2022/11/18 03:22:57;;;;;;;29.92;17.70;;;;;;;;;;5057073;28;20495;-79
2022/11/18 03:25:29;;;;;;;31.08;18.38;;;;;;;;;;5038252;28;20407;-79
2022/11/18 03:27:55;;;;;;;30.17;17.15;;;;;;;;;;5056807;28;20045;-79
2022/11/18 03:30:23;;;;;;;29.02;17.02;;;;;;;;;;5056303;28;20072;-79
2022/11/18 03:32:57;;;;;;;30.42;16.98;;;;;;;;;;5056443;28;20045;-79
2022/11/18 03:35:28;;;;;;;31.50;17.58;;;;;;;;;;5054196;28;20051;-79
2022/11/18 03:37:59;;;;;;;29.27;18.10;;;;;;;;;;5055314;28;20451;-79
2022/11/18 03:40:28;;;;;;;32.85;17.60;;;;;;;;;;5052176;28;20090;-79
2022/11/18 03:42:58;;;;;;;27.63;16.38;;;;;;;;;;5035597;28;20100;-79
2022/11/18 03:45:26;;;;;;;33.10;18.30;;;;;;;;;;5043135;28;20037;-79
2022/11/18 03:47:54;;;;;;;29.00;18.25;;;;;;;;;;5055721;28;20094;-79
2022/11/18 03:50:33;;;;;;;32.67;18.02;;;;;;;;;;5055412;28;20041;-79
2022/11/18 03:53:00;;;;;;;33.35;18.13;;;;;;;;;;5055005;28;20052;-79
2022/11/18 03:55:32;;;;;;;33.42;18.13;;;;;;;;;;5053884;28;20503;-79
2022/11/18 03:58:08;;;;;;;32.78;17.83;;;;;;;;;;5037329;28;20056;-79
2022/11/18 04:00:37;;;;;;;35.08;18.60;;;;;;;;;;5047309;28;20045;-79
2022/11/18 04:03:04;;;;;;;33.30;17.48;;;;;;;;;;5055045;28;20047;-79
2022/11/18 04:05:33;;;;;;;33.83;18.33;;;;;;;;;;5054814;28;20056;-79
2022/11/18 04:08:01;;;;;;;34.17;18.25;;;;;;;;;;5054629;28;20048;-79
2022/11/18 04:10:33;;;;;;;29.73;15.52;;;;;;;;;;5055181;28;20055;-79
2022/11/18 04:13:02;;;;;;;33.50;17.98;;;;;;;;;;5055127;28;20601;-79
2022/11/18 04:15:30;;;;;;;35.50;18.70;;;;;;;;;;5037015;28;20055;-79
2022/11/18 04:17:56;;;;;;;34.78;17.33;;;;;;;;;;5054287;28;20049;-79
2022/11/18 04:20:22;;;;;;;34.33;18.77;;;;;;;;;;5054105;28;20513;-79
2022/11/18 04:22:49;;;;;;;39.33;19.33;;;;;;;;;;5055015;28;20423;-79
2022/11/18 04:25:15;;;;;;;31.77;18.73;;;;;;;;;;5053594;28;20488;-79
2022/11/18 04:27:41;;;;;;;32.22;16.70;;;;;;;;;;5055160;28;20040;-79
2022/11/18 04:30:08;;;;;;;35.88;17.90;;;;;;;;;;5054132;28;20075;-79
2022/11/18 04:32:34;;;;;;;34.90;18.38;;;;;;;;;;5054419;28;20041;-79
2022/11/18 04:35:00;;;;;;;33.58;18.00;;;;;;;;;;5054531;28;20037;-79
2022/11/18 04:37:26;;;;;;;27.45;14.75;;;;;;;;;;5054635;28;20597;-79
2022/11/18 04:39:52;;;;;;;31.58;16.10;;;;;;;;;;5036091;28;21420;-79
2022/11/18 04:42:18;;;;;;;32.00;16.90;;;;;;;;;;5051585;28;20447;-79
2022/11/18 04:44:44;;;;;;;22.20;12.65;;;;;;;;;;5034696;28;20045;-79
2022/11/18 04:47:10;;;;;;;28.83;14.30;;;;;;;;;;5033608;28;20468;-79
2022/11/18 04:49:36;;;;;;;30.50;15.50;;;;;;;;;;5034250;28;20129;-79
2022/11/18 04:52:03;;;;;;;23.70;13.45;;;;;;;;;;5034045;28;20400;-78
2022/11/18 04:54:29;;;;;;;25.95;14.85;;;;;;;;;;5019288;28;20514;-78
2022/11/18 04:56:55;;;;;;;27.55;14.95;;;;;;;;;;5042447;28;20045;-78
2022/11/18 04:59:22;;;;;;;29.20;15.55;;;;;;;;;;5053531;28;20561;-78
2022/11/18 05:01:49;;;;;;;25.92;14.02;;;;;;;;;;5053419;28;20403;-79
2022/11/18 05:04:16;;;;;;;28.80;15.52;;;;;;;;;;5053667;28;20041;-79
2022/11/18 05:06:43;;;;;;;21.20;12.40;;;;;;;;;;5054011;28;20116;-79
2022/11/18 05:09:09;;;;;;;27.65;14.73;;;;;;;;;;5052789;28;20087;-79
2022/11/18 05:14:19;;;;;;;26.60;15.20;;;;;;;;;;5033008;28;20617;-79
2022/11/18 05:16:45;;;;;;;24.45;13.52;;;;;;;;;;5033537;28;20076;-79
2022/11/18 05:19:12;;;;;;;24.27;13.60;;;;;;;;;;5051154;28;20048;-79
2022/11/18 05:21:38;;;;;;;24.77;14.05;;;;;;;;;;5053313;28;20463;-79
2022/11/18 05:24:04;;;;;;;27.88;13.93;;;;;;;;;;5036568;28;20087;-79
2022/11/18 05:26:30;;;;;;;24.98;14.52;;;;;;;;;;5033734;28;20071;-79
2022/11/18 05:28:56;;;;;;;25.23;13.35;;;;;;;;;;5050136;28;20051;-79
2022/11/18 05:31:22;;;;;;;22.90;14.05;;;;;;;;;;5055851;28;20571;-79
2022/11/18 05:33:49;;;;;;;25.15;14.60;;;;;;;;;;5057408;28;20044;-79
2022/11/18 05:36:16;;;;;;;25.58;13.20;;;;;;;;;;5057997;28;20049;-79
2022/11/18 05:38:43;;;;;;;25.55;13.80;;;;;;;;;;5057024;28;20044;-79
2022/11/18 05:41:09;;;;;;;20.80;11.65;;;;;;;;;;5043583;28;20507;-79
2022/11/18 05:43:36;;;;;;;24.95;13.02;;;;;;;;;;5046252;28;20075;-79
2022/11/18 05:46:03;;;;;;;20.98;13.32;;;;;;;;;;5037459;28;20055;-79
2022/11/18 05:48:29;;;;;;;22.08;12.20;;;;;;;;;;5048155;28;20120;-79
2022/11/18 05:50:55;;;;;;;22.90;13.13;;;;;;;;;;5057544;28;20041;-79
2022/11/18 05:53:23;;;;;;;26.15;14.75;;;;;;;;;;5041267;28;20491;-79
2022/11/18 05:56:06;;;;;;;22.38;12.30;;;;;;;;;;5037037;28;20046;-79
2022/11/18 05:58:32;;;;;;;24.52;13.75;;;;;;;;;;5044590;28;20071;-79
2022/11/18 06:01:02;;;;;;;24.75;15.52;;;;;;;;;;5075874;28;20044;-79
2022/11/18 06:03:30;;;;;;;25.58;13.95;;;;;;;;;;5076949;28;20044;-79
2022/11/18 06:05:57;;;;;;;21.70;13.55;;;;;;;;;;5075385;28;20048;-79
2022/11/18 06:08:25;;;;;;;22.17;12.98;;;;;;;;;;5077035;28;20079;-79
2022/11/18 06:10:52;;;;;;;24.60;13.75;;;;;;;;;;5064369;28;20156;-79
2022/11/18 06:13:22;;;;;;;23.38;13.10;;;;;;;;;;5036523;28;20141;-79
2022/11/18 06:15:48;;;;;;;23.38;13.60;;;;;;;;;;5037517;28;20052;-79
2022/11/18 06:18:20;;;;;;;23.20;12.75;;;;;;;;;;5047264;28;20491;-79
2022/11/18 06:20:46;;;;;;;20.60;12.93;;;;;;;;;;5057396;28;20042;-78
2022/11/18 06:23:13;;;;;;;25.95;14.75;;;;;;;;;;5047183;28;20045;-78
2022/11/18 06:25:39;;;;;;;21.85;12.45;;;;;;;;;;5067619;28;20519;-78
2022/11/18 06:28:05;;;;;;;23.65;13.48;;;;;;;;;;5056544;28;20129;-78
2022/11/18 06:30:31;;;;;;;21.98;13.13;;;;;;;;;;5056463;28;20135;-78
2022/11/18 06:32:57;;;;;;;24.02;13.93;;;;;;;;;;5055896;28;20199;-78
2022/11/18 06:35:23;;;;;;;23.83;13.15;;;;;;;;;;5056894;28;20053;-78
2022/11/18 06:37:49;;;;;;;25.77;13.73;;;;;;;;;;5055997;28;20055;-78
2022/11/18 06:40:16;;;;;;;27.70;13.90;;;;;;;;;;5055264;28;20096;-78
2022/11/18 06:45:27;;;;;;;27.40;14.10;;;;;;;;;;5036846;28;20054;-78
2022/11/18 06:47:56;;;;;;;19.92;11.82;;;;;;;;;;5053701;28;20037;-78
2022/11/18 06:50:22;;;;;;;22.50;13.07;;;;;;;;;;5055624;28;20391;-79
2022/11/18 06:52:48;;;;;;;28.58;15.30;;;;;;;;;;5056790;28;20482;-78
2022/11/18 06:55:15;;;;;;;25.50;13.50;;;;;;;;;;5056067;28;20360;-79
2022/11/18 06:57:41;;;;;;;25.60;13.15;;;;;;;;;;5056385;28;20041;-79
2022/11/18 07:00:07;;;;;;;28.25;14.10;;;;;;;;;;5054420;28;20503;-79
2022/11/18 07:02:35;;;;;;;23.88;13.45;;;;;;;;;;5056045;28;20040;-78
2022/11/18 07:05:02;;;;;;;28.58;14.10;;;;;;;;;;5056089;28;20199;-78
2022/11/18 07:07:36;;;;;;;27.83;14.13;;;;;;;;;;5064778;28;20461;-78
2022/11/18 07:10:03;;;;;;;28.02;15.15;;;;;;;;;;5062171;28;20388;-78
2022/11/18 07:12:29;;;;;;;29.40;14.10;;;;;;;;;;5055012;28;20235;-78
2022/11/18 07:14:55;;;;;;;25.70;13.82;;;;;;;;;;5055467;28;20411;-78
2022/11/18 07:17:21;;;;;;;27.25;14.80;;;;;;;;;;5047582;28;20040;-79
2022/11/18 07:19:47;;;;;;;26.63;14.73;;;;;;;;;;5046395;28;20055;-79
2022/11/18 07:22:13;;;;;;;28.80;14.20;;;;;;;;;;5024770;28;20142;-79
2022/11/18 07:24:40;;;;;;;27.30;15.07;;;;;;;;;;5048251;28;20098;-79
2022/11/18 07:27:06;;;;;;;28.00;13.77;;;;;;;;;;5058871;28;20037;-80
2022/11/18 07:29:32;;;;;;;24.63;13.23;;;;;;;;;;5057741;28;20041;-79
2022/11/18 07:31:58;;;;;;;25.65;14.18;;;;;;;;;;5049874;28;20041;-80
2022/11/18 07:34:24;;;;;;;26.70;14.02;;;;;;;;;;5058070;28;20155;-79
2022/11/18 07:36:50;;;;;;;27.98;15.00;;;;;;;;;;5045771;28;20075;-79
2022/11/18 07:39:16;;;;;;;29.80;15.13;;;;;;;;;;5057143;28;20041;-79
2022/11/18 07:41:42;;;;;;;29.50;13.88;;;;;;;;;;5039604;28;20414;-79
2022/11/18 07:44:11;;;;;;;31.48;15.32;;;;;;;;;;5058116;28;20462;-80
2022/11/18 07:46:37;;;;;;;28.65;13.65;;;;;;;;;;5057679;28;20044;-80
2022/11/18 07:49:04;;;;;;;28.00;15.05;;;;;;;;;;5040669;28;20042;-80
2022/11/18 07:51:33;;;;;;;24.38;13.50;;;;;;;;;;5039418;28;20041;-80
2022/11/18 07:53:59;;;;;;;30.02;15.05;;;;;;;;;;5039891;28;20042;-80
2022/11/18 07:56:25;;;;;;;27.58;14.63;;;;;;;;;;5038659;28;20403;-79
2022/11/18 07:58:55;;;;;;;26.38;14.82;;;;;;;;;;5040979;28;20045;-79
2022/11/18 08:01:22;;;;;;;27.00;15.05;;;;;;;;;;5038891;28;20077;-78
2022/11/18 08:03:48;;;;;;;32.15;15.48;;;;;;;;;;5052082;28;20426;-81
2022/11/18 08:06:15;;;;;;;31.88;14.70;;;;;;;;;;5056882;28;20044;-78
2022/11/18 08:08:41;;;;;;;26.83;14.40;;;;;;;;;;5056991;28;20041;-78
2022/11/18 08:11:09;;;;;;;29.33;14.85;;;;;;;;;;5056544;28;20479;-77
2022/11/18 08:13:35;;;;;;;28.05;14.77;;;;;;;;;;5056095;28;20053;-80
2022/11/18 08:16:02;;;;;;;25.17;12.63;;;;;;;;;;5054651;28;20060;-80
2022/11/18 08:18:29;;;;;;;25.25;12.65;;;;;;;;;;5057074;28;20077;-79
2022/11/18 08:20:55;;;;;;;25.92;14.27;;;;;;;;;;5055017;28;20403;-80
2022/11/18 08:23:21;;;;;;;24.25;12.70;;;;;;;;;;5057319;28;20578;-80
2022/11/18 08:25:47;;;;;;;29.50;13.43;;;;;;;;;;5053081;28;20084;-80
2022/11/18 08:28:14;;;;;;;30.52;15.38;;;;;;;;;;5038025;28;20056;-80
2022/11/18 08:30:40;;;;;;;27.25;14.18;;;;;;;;;;5036607;28;20056;-79
2022/11/18 08:33:06;;;;;;;26.02;13.70;;;;;;;;;;5053488;28;20037;-79
2022/11/18 08:35:32;;;;;;;26.85;13.02;;;;;;;;;;5047823;28;20042;-80
2022/11/18 08:37:59;;;;;;;23.90;12.75;;;;;;;;;;5043579;28;20052;-80
2022/11/18 08:40:25;;;;;;;26.77;13.52;;;;;;;;;;5055041;28;20048;-80
2022/11/18 08:42:51;;;;;;;24.77;14.30;;;;;;;;;;5056484;28;20072;-79
2022/11/18 08:45:18;;;;;;;27.95;12.90;;;;;;;;;;5055910;28;20059;-79
2022/11/18 08:47:44;;;;;;;25.88;12.77;;;;;;;;;;5043408;28;20042;-77
2022/11/18 08:50:11;;;;;;;25.10;13.25;;;;;;;;;;5036270;28;20495;-79
2022/11/18 08:52:37;;;;;;;26.98;13.57;;;;;;;;;;5037118;28;20038;-79
2022/11/18 08:55:04;;;;;;;27.85;13.25;;;;;;;;;;5041287;28;20163;-79
2022/11/18 08:57:30;;;;;;;24.67;13.98;;;;;;;;;;5038891;28;20361;-79
2022/11/18 08:59:56;;;;;;;27.60;14.68;;;;;;;;;;5048073;28;20052;-79
2022/11/18 09:02:23;;;;;;;22.88;13.68;;;;;;;;;;5050386;28;20037;-79
2022/11/18 09:04:50;;;;;;;24.77;12.05;;;;;;;;;;5055597;28;20056;-79
2022/11/18 09:07:17;;;;;;;21.50;11.30;;;;;;;;;;5041287;28;20033;-81
2022/11/18 09:09:43;;;;;;;24.25;12.93;;;;;;;;;;5051298;28;21677;-79
2022/11/18 09:12:13;;;;;;;22.77;10.95;;;;;;;;;;5040729;28;20049;-79
2022/11/18 09:14:43;;;;;;;23.17;12.73;;;;;;;;;;5045007;28;20503;-80
2022/11/18 09:17:10;;;;;;;28.42;13.93;;;;;;;;;;5041483;28;20486;-82
2022/11/18 09:19:36;;;;;;;28.00;14.65;;;;;;;;;;5051075;28;20057;-80
2022/11/18 09:22:03;;;;;;;27.85;13.95;;;;;;;;;;5053120;28;20036;-80
2022/11/18 09:24:29;;;;;;;21.58;11.75;;;;;;;;;;5052879;28;20041;-80
2022/11/18 09:26:55;;;;;;;26.35;12.57;;;;;;;;;;5056707;28;20044;-79
2022/11/18 09:29:25;;;;;;;25.15;13.52;;;;;;;;;;5056199;28;20536;-79
2022/11/18 09:31:51;;;;;;;25.27;14.02;;;;;;;;;;5056575;28;20041;-80
2022/11/18 09:34:17;;;;;;;24.77;12.30;;;;;;;;;;5057254;28;20096;-80
2022/11/18 09:36:44;;;;;;;23.00;12.43;;;;;;;;;;5053965;28;20049;-80
2022/11/18 09:39:10;;;;;;;20.95;11.40;;;;;;;;;;5061536;28;20363;-80
2022/11/18 09:41:46;;;;;;;22.92;13.07;;;;;;;;;;5061494;28;20037;-80
2022/11/18 09:44:24;;;;;;;21.00;11.75;;;;;;;;;;5058897;28;20044;-80
2022/11/18 09:46:56;;;;;;;22.00;11.82;;;;;;;;;;5057955;28;20045;-80
2022/11/18 09:49:35;;;;;;;27.02;14.13;;;;;;;;;;5057005;28;20045;-80
2022/11/18 09:52:02;;;;;;;23.73;13.98;;;;;;;;;;5058141;28;20053;-79
2022/11/18 09:54:34;;;;;;;20.92;12.82;;;;;;;;;;5048045;28;20391;-79
2022/11/18 09:57:00;;;;;;;24.13;13.38;;;;;;;;;;5057794;28;20055;-79
2022/11/18 09:59:32;;;;;;;23.88;12.80;;;;;;;;;;5074713;28;20036;-79
2022/11/18 10:02:14;;;;;;;25.42;14.15;;;;;;;;;;5058087;28;20116;-79
2022/11/18 10:04:40;;;;;;;21.92;11.77;;;;;;;;;;5055738;28;20478;-79
2022/11/18 10:07:12;;;;;;;24.95;13.30;;;;;;;;;;5057954;28;20075;-79
2022/11/18 10:09:43;;;;;;;23.95;12.85;;;;;;;;;;5056211;28;20102;-79
2022/11/18 10:12:12;;;;;;;24.58;12.38;;;;;;;;;;5054910;28;20056;-79
2022/11/18 10:14:47;;;;;;;21.48;12.95;;;;;;;;;;5047320;28;20132;-79
2022/11/18 10:17:20;;;;;;;22.45;12.85;;;;;;;;;;5040250;28;20128;-79
2022/11/18 10:19:50;;;;;;;19.27;12.02;;;;;;;;;;5051585;28;20057;-79
2022/11/18 10:22:22;;;;;;;22.05;11.68;;;;;;;;;;5061519;28;20093;-79
2022/11/18 10:24:52;;;;;;;21.20;12.10;;;;;;;;;;5056776;28;20456;-83
2022/11/18 10:27:19;;;;;;;22.15;12.82;;;;;;;;;;5059762;28;20541;-81
2022/11/18 10:29:47;;;;;;;20.55;11.05;;;;;;;;;;5060354;28;20495;-80
2022/11/18 10:32:15;;;;;;;20.02;11.98;;;;;;;;;;5057974;28;20505;-81
2022/11/18 10:34:51;;;;;;;19.83;11.07;;;;;;;;;;5035573;28;20045;-80
2022/11/18 10:37:26;;;;;;;19.10;11.82;;;;;;;;;;5058521;28;20052;-80
2022/11/18 10:39:54;;;;;;;22.25;13.45;;;;;;;;;;5057236;28;20513;-80
2022/11/18 10:42:25;;;;;;;22.80;12.45;;;;;;;;;;5051974;28;20056;-80
2022/11/18 10:44:51;;;;;;;21.85;12.95;;;;;;;;;;5057751;28;20099;-80
2022/11/18 10:47:20;;;;;;;24.98;13.32;;;;;;;;;;5055959;28;20052;-80
2022/11/18 10:49:46;;;;;;;22.45;12.60;;;;;;;;;;5057532;28;20040;-80
2022/11/18 10:52:13;;;;;;;21.27;12.82;;;;;;;;;;5056450;28;20051;-80
2022/11/18 10:54:40;;;;;;;22.98;12.25;;;;;;;;;;5055876;28;20037;-80
2022/11/18 10:57:12;;;;;;;23.17;12.38;;;;;;;;;;5042654;28;20132;-80
2022/11/18 10:59:50;;;;;;;18.52;9.90;;;;;;;;;;5049777;28;20045;-80
2022/11/18 11:02:21;;;;;;;19.58;10.43;;;;;;;;;;5057379;28;20041;-80
2022/11/18 11:04:48;;;;;;;18.48;10.02;;;;;;;;;;5055014;28;20044;-81
2022/11/18 11:07:15;;;;;;;20.27;11.40;;;;;;;;;;5052002;28;20033;-81
2022/11/18 11:09:41;;;;;;;19.95;11.30;;;;;;;;;;5049045;28;20049;-81
2022/11/18 11:12:15;;;;;;;19.98;11.75;;;;;;;;;;5054695;28;20468;-80
2022/11/18 11:14:55;;;;;;;18.60;10.88;;;;;;;;;;5056422;28;20394;-80
2022/11/18 11:17:26;;;;;;;21.65;11.35;;;;;;;;;;5049114;28;20046;-80
2022/11/18 11:20:10;;;;;;;19.83;10.57;;;;;;;;;;5044479;28;20067;-81
2022/11/18 11:22:36;;;;;;;17.80;10.77;;;;;;;;;;5046095;28;20037;-80
2022/11/18 11:25:02;;;;;;;20.17;10.30;;;;;;;;;;5056245;28;20041;-80
2022/11/18 11:27:55;;;;;;;16.10;9.90;;;;;;;;;;5043170;28;20442;-80
2022/11/18 11:30:23;;;;;;;16.95;9.05;;;;;;;;;;5037455;28;20045;-80
2022/11/18 11:32:58;;;;;;;15.98;9.55;;;;;;;;;;5054615;28;20047;-80
2022/11/18 11:35:36;;;;;;;18.33;8.95;;;;;;;;;;5048667;28;20041;-80
2022/11/18 11:38:05;;;;;;;16.13;10.23;;;;;;;;;;5046809;28;20057;-82
2022/11/18 11:40:38;;;;;;;18.27;9.73;;;;;;;;;;5051978;28;20392;-80
2022/11/18 11:43:23;;;;;;;17.02;8.55;;;;;;;;;;5056485;28;20037;-80
2022/11/18 11:46:07;;;;;;;18.75;9.05;;;;;;;;;;5056197;28;20040;-80
2022/11/18 11:48:48;;;;;;;15.57;9.15;;;;;;;;;;5055101;28;20048;-80
2022/11/18 11:51:20;;;;;;;15.90;8.98;;;;;;;;;;5053700;28;20045;-82
2022/11/18 11:53:52;;;;;;;16.83;9.05;;;;;;;;;;5051049;28;20049;-83
2022/11/18 11:56:24;;;;;;;22.40;10.63;;;;;;;;;;5038192;28;20108;-81
2022/11/18 11:59:09;;;;;;;18.40;10.32;;;;;;;;;;5053992;28;20522;-81
2022/11/18 12:01:50;;;;;;;21.33;10.30;;;;;;;;;;5055040;28;20128;-80
2022/11/18 12:04:32;;;;;;;20.02;11.07;;;;;;;;;;5035169;28;20049;-82
2022/11/18 12:06:59;;;;;;;19.95;11.82;;;;;;;;;;5054176;28;20041;-80
2022/11/18 12:09:28;;;;;;;27.05;12.18;;;;;;;;;;5054923;28;20455;-82
2022/11/18 12:11:57;;;;;;;21.02;11.98;;;;;;;;;;5053442;28;20044;-82
2022/11/18 12:14:32;;;;;;;26.83;13.35;;;;;;;;;;5053654;28;20163;-82
2022/11/18 12:17:11;;;;;;;22.13;12.03;;;;;;;;;;5041513;28;20046;-81
2022/11/18 12:19:38;;;;;;;21.65;11.70;;;;;;;;;;5046405;28;20048;-82
2022/11/18 12:22:05;;;;;;;21.52;11.95;;;;;;;;;;5054121;28;20190;-82
2022/11/18 12:24:36;;;;;;;19.15;10.52;;;;;;;;;;5049199;28;20050;-82
2022/11/18 12:27:11;;;;;;;19.90;10.55;;;;;;;;;;5055113;28;20406;-81
2022/11/18 12:29:54;;;;;;;18.23;10.57;;;;;;;;;;5052973;28;20063;-82
2022/11/18 12:32:47;;;;;;;18.30;10.52;;;;;;;;;;5051196;28;20074;-82
2022/11/18 12:35:13;;;;;;;19.95;10.57;;;;;;;;;;5050589;28;20128;-81
2022/11/18 12:37:39;;;;;;;18.17;11.35;;;;;;;;;;5041086;28;20399;-82
2022/11/18 12:40:05;;;;;;;20.50;10.63;;;;;;;;;;5050796;28;20458;-82
2022/11/18 12:45:42;;;;;;;16.85;9.35;;;;;;;;;;5053934;28;20049;-80
2022/11/18 12:48:23;;;;;;;19.73;9.75;;;;;;;;;;5055411;28;20060;-81
2022/11/18 12:50:50;;;;;;;19.40;10.45;;;;;;;;;;5057743;28;20051;-81
2022/11/18 12:53:35;;;;;;;21.63;10.23;;;;;;;;;;5061510;28;20041;-81
2022/11/18 12:56:09;;;;;;;21.95;11.15;;;;;;;;;;5067821;28;20104;-81
2022/11/18 12:58:35;;;;;;;19.45;11.18;;;;;;;;;;5066295;28;20095;-81
2022/11/18 13:01:06;;;;;;;21.02;10.52;;;;;;;;;;5064867;28;20483;-81
2022/11/18 13:03:33;;;;;;;19.73;9.98;;;;;;;;;;5031968;28;20048;-81
2022/11/18 13:06:05;;;;;;;17.67;9.90;;;;;;;;;;5048293;28;20091;-81
2022/11/18 13:08:32;;;;;;;18.42;9.75;;;;;;;;;;5043945;28;20473;-81
2022/11/18 13:17:50;;;;;;;22.08;12.23;;;;;;;;;;5061527;28;20084;-81
2022/11/18 13:19:25;;;;;;;21.63;12.00;;;;;;;;;;5042668;28;20048;-81
2022/11/18 13:24:43;;;;;;;28.25;12.73;;;;;;;;;;5053759;28;20072;-81
2022/11/18 13:27:16;;;;;;;21.33;10.55;;;;;;;;;;5050773;28;20472;-80
2022/11/18 13:29:47;;;;;;;23.38;12.30;;;;;;;;;;5040395;28;20060;-81
2022/11/18 13:32:16;;;;;;;23.08;12.30;;;;;;;;;;5041238;28;20179;-81
2022/11/18 13:34:45;;;;;;;26.88;12.48;;;;;;;;;;5043372;28;20042;-81
2022/11/18 13:37:15;;;;;;;21.95;12.52;;;;;;;;;;5060019;28;20049;-81
2022/11/18 13:39:43;;;;;;;24.50;12.35;;;;;;;;;;5060872;28;20487;-81
2022/11/18 13:42:22;;;;;;;20.92;10.93;;;;;;;;;;5061485;28;20144;-81
2022/11/18 13:44:59;;;;;;;19.77;10.88;;;;;;;;;;5057419;28;20049;-81
2022/11/18 13:47:25;;;;;;;22.35;11.93;;;;;;;;;;5060140;28;20067;-81
2022/11/18 13:49:55;;;;;;;23.00;11.15;;;;;;;;;;5055537;28;20049;-81
2022/11/18 13:52:28;;;;;;;22.60;12.00;;;;;;;;;;5044247;28;20042;-81
2022/11/18 13:54:55;;;;;;;21.42;11.75;;;;;;;;;;5056572;28;20129;-80
2022/11/18 13:57:25;;;;;;;17.98;10.43;;;;;;;;;;5058296;28;20046;-85
2022/11/18 13:59:53;;;;;;;19.65;10.52;;;;;;;;;;5051980;28;20124;-80
2022/11/18 14:02:20;;;;;;;22.13;11.60;;;;;;;;;;5055782;28;20045;-79
2022/11/18 14:04:52;;;;;;;22.75;10.80;;;;;;;;;;5052087;28;20423;-80
2022/11/18 14:07:25;;;;;;;19.67;11.63;;;;;;;;;;5058003;28;20040;-79
2022/11/18 14:09:57;;;;;;;23.42;12.82;;;;;;;;;;5058047;28;20041;-80
2022/11/18 14:12:31;;;;;;;19.02;10.55;;;;;;;;;;5065261;28;20052;-81
2022/11/18 14:15:16;;;;;;;20.33;12.23;;;;;;;;;;5062968;28;20420;-80
2022/11/18 14:17:53;;;;;;;23.83;12.52;;;;;;;;;;5058120;28;20049;-80
2022/11/18 14:20:19;;;;;;;22.02;12.25;;;;;;;;;;5042167;28;20050;-80
2022/11/18 14:22:47;;;;;;;20.35;11.55;;;;;;;;;;5059426;28;20094;-82
2022/11/18 14:25:19;;;;;;;19.90;11.05;;;;;;;;;;5060152;28;20036;-80
2022/11/18 14:28:09;;;;;;;23.65;12.98;;;;;;;;;;5055629;28;20119;-81
2022/11/18 14:30:40;;;;;;;24.73;12.90;;;;;;;;;;5055825;28;20113;-80
2022/11/18 14:33:15;;;;;;;24.65;13.77;;;;;;;;;;5059486;28;20037;-80
2022/11/18 14:35:48;;;;;;;21.98;11.63;;;;;;;;;;5061408;28;20053;-80
2022/11/18 14:38:15;;;;;;;18.27;10.13;;;;;;;;;;5061013;28;20048;-80
2022/11/18 14:40:41;;;;;;;21.42;12.18;;;;;;;;;;5062551;28;20056;-80
2022/11/18 14:43:09;;;;;;;21.00;11.60;;;;;;;;;;5063125;28;20049;-80
2022/11/18 14:45:35;;;;;;;23.15;12.40;;;;;;;;;;5061589;28;20120;-80
2022/11/18 14:48:01;;;;;;;24.45;12.18;;;;;;;;;;5062890;28;20127;-80
2022/11/18 14:50:27;;;;;;;22.13;11.63;;;;;;;;;;5056837;28;20041;-80
2022/11/18 14:52:53;;;;;;;24.13;11.00;;;;;;;;;;5041189;28;20049;-80
2022/11/18 14:55:19;;;;;;;21.05;10.93;;;;;;;;;;5056746;28;20041;-81